Startpagina
METAR-TAF:

METAR-TAF

Vliegvelden :

Amman, Jordanië

breedte: 31-59N, lengte: 035-59E, hoogte: 767 m

Actueel weer

Dit bericht is 33 minuten geleden gemaakt, om 18:00 UTC
Wind 8 kt uit het noordwesten
Temperatuur 27°C
Vochtigheid 37%
Druk 1010 hPa
Zicht: 6000 m

METAR: OJAM 181800Z 32008KT 6000 NSC 27/11 Q1010 NOSIG

Tijdstip: 21:33 (18:33 UTC)

Verwachting

Dit bericht is 1 uur en het 43 minuten geleden gemaakt, om 16:50 UTC
Verwachting geldig van 18 om 18 UTC tot 19 om 24 UTC
Wind 10 kt uit het westen
Zicht: 5000 m
Heiigheid
Tijdelijke
van 19 om 00 UTC tot 19 om 06 UTC
Wind 2 kt uit variabele richting

TAF: OJAM 181650Z 1818/1924 28010KT 5000 HZ NSC TEMPO 1900/1906 VRB02KT

Waarnemingen en weersverwachtingen van meer dan 4000 vliegvelden (METAR en TAF).

De beschikbare stations zijn de gele en rode punten op de kaart.

Ga met uw muis naar het station om de naam te zien.

Klik dan om waarnemingen en weersverwachtingen te zien.

kaart wijzigen: klik op de groene knoppen met een zwart kruis om in te zoomen, op de groene knop met een streepje om uit te zoomen of op de groene pijlen voor aangrenzende kaarten.


METAR-TAF: